createdAt,value
2022-12-11T15:01:31.822Z,20.95
2022-12-11T15:04:03.303Z,19.99
2022-12-11T15:06:32.858Z,19.23
2022-12-11T15:09:10.341Z,19.34
2022-12-11T15:11:40.098Z,19.09
2022-12-11T15:14:09.805Z,19.06
2022-12-11T15:16:38.911Z,18.56
2022-12-11T15:19:06.215Z,18.66
2022-12-11T15:21:34.577Z,18.76
2022-12-11T15:24:02.953Z,19.16
2022-12-11T15:26:34.409Z,19.52
2022-12-11T15:29:01.818Z,17.93
2022-12-11T15:31:29.877Z,17.68
2022-12-11T15:33:58.634Z,18.06
2022-12-11T15:36:26.566Z,18.15
2022-12-11T15:38:54.409Z,17.89
2022-12-11T15:41:21.663Z,17.41
2022-12-11T15:43:51.731Z,17.28
2022-12-11T15:46:21.319Z,18.66
2022-12-11T15:48:48.825Z,17.95
2022-12-11T15:51:17.417Z,18.45
2022-12-11T15:53:44.649Z,18.84
2022-12-11T15:56:13.254Z,18.96
2022-12-11T15:58:40.444Z,18.90
2022-12-11T16:01:07.681Z,20.08
2022-12-11T16:03:35.016Z,20.55
2022-12-11T16:06:02.315Z,20.48
2022-12-11T16:08:31.243Z,19.88
2022-12-11T16:10:58.501Z,20.36
2022-12-11T16:13:25.841Z,22.27
2022-12-11T16:15:53.519Z,21.56
2022-12-11T16:18:23.683Z,21.30
2022-12-11T16:20:51.104Z,22.25
2022-12-11T16:23:18.398Z,22.43
2022-12-11T16:25:47.013Z,22.63
2022-12-11T16:28:15.276Z,23.80
2022-12-11T16:30:42.669Z,23.64
2022-12-11T16:33:12.723Z,23.72
2022-12-11T16:35:40.514Z,24.79
2022-12-11T16:38:07.826Z,23.98
2022-12-11T16:40:35.145Z,25.08
2022-12-11T16:43:04.175Z,25.17
2022-12-11T16:45:31.433Z,24.97
2022-12-11T16:47:58.638Z,27.01
2022-12-11T16:50:25.903Z,26.69
2022-12-11T16:52:53.191Z,26.61
2022-12-11T16:55:20.593Z,26.37
2022-12-11T16:57:47.792Z,27.12
2022-12-11T17:00:17.198Z,27.51
2022-12-11T17:02:44.456Z,26.84
2022-12-11T17:05:12.114Z,27.52
2022-12-11T17:07:39.605Z,28.22
2022-12-11T17:10:07.995Z,28.63
2022-12-11T17:12:35.217Z,28.13
2022-12-11T17:15:02.554Z,27.57
2022-12-11T17:17:31.252Z,28.18
2022-12-11T17:19:58.556Z,28.38
2022-12-11T17:22:25.878Z,28.63
2022-12-11T17:24:55.871Z,27.65
2022-12-11T17:27:23.087Z,28.43
2022-12-11T17:29:50.479Z,27.74
2022-12-11T17:32:17.798Z,27.87
2022-12-11T17:34:46.698Z,27.80
2022-12-11T17:37:13.964Z,26.59
2022-12-11T17:39:41.263Z,26.73
2022-12-11T17:42:08.571Z,26.97
2022-12-11T17:44:36.416Z,27.23
2022-12-11T17:47:10.585Z,26.60
2022-12-11T17:49:38.424Z,27.08
2022-12-11T17:52:07.190Z,26.35
2022-12-11T17:54:34.488Z,27.12
2022-12-11T17:57:01.727Z,27.61
2022-12-11T17:59:30.254Z,29.39
2022-12-11T18:01:57.541Z,27.98
2022-12-11T18:04:24.950Z,27.74
2022-12-11T18:06:52.245Z,27.59
2022-12-11T18:09:23.986Z,27.50
2022-12-11T18:11:51.496Z,28.99
2022-12-11T18:14:21.559Z,31.16
2022-12-11T18:16:48.950Z,30.37
2022-12-11T18:19:16.520Z,30.40
2022-12-11T18:21:44.309Z,47.01
2022-12-11T18:24:11.702Z,47.61
2022-12-11T18:26:40.828Z,61.56
2022-12-11T18:29:08.370Z,70.97
2022-12-11T18:31:41.978Z,61.14
2022-12-11T18:34:10.255Z,60.72
2022-12-11T18:36:37.598Z,69.81
2022-12-11T18:39:04.945Z,57.11
2022-12-11T18:41:32.274Z,43.16
2022-12-11T18:44:06.516Z,38.01
2022-12-11T18:46:36.596Z,34.60
2022-12-11T18:49:03.804Z,32.24
2022-12-11T18:51:30.995Z,34.21
2022-12-11T18:53:58.238Z,36.20
2022-12-11T18:56:25.428Z,35.67
2022-12-11T18:58:52.634Z,35.53
2022-12-11T19:01:22.128Z,34.81
2022-12-11T19:03:49.575Z,35.05
2022-12-11T19:06:17.556Z,36.52
2022-12-11T19:08:44.854Z,37.84
2022-12-11T19:11:14.424Z,37.80
2022-12-11T19:13:41.575Z,36.98
2022-12-11T19:16:11.083Z,37.59
2022-12-11T19:18:39.796Z,37.35
2022-12-11T19:21:09.440Z,37.24
2022-12-11T19:23:36.816Z,38.07
2022-12-11T19:26:04.113Z,37.97
2022-12-11T19:28:31.452Z,38.59
2022-12-11T19:30:58.759Z,39.15
2022-12-11T19:33:26.054Z,39.43
2022-12-11T19:36:02.237Z,38.85
2022-12-11T19:38:29.536Z,39.84
2022-12-11T19:40:56.814Z,38.78
2022-12-11T19:43:23.973Z,39.05
2022-12-11T19:45:51.193Z,40.73
2022-12-11T19:48:18.377Z,39.91
2022-12-11T19:50:45.595Z,42.66
2022-12-11T19:53:14.311Z,40.02
2022-12-11T19:55:41.485Z,37.66
2022-12-11T19:58:08.794Z,38.05
2022-12-11T20:00:37.697Z,36.47
2022-12-11T20:03:05.023Z,35.74
2022-12-11T20:05:32.253Z,35.74
2022-12-11T20:08:43.076Z,35.41
2022-12-11T20:12:13.204Z,35.67
2022-12-11T20:14:22.756Z,35.83
2022-12-11T20:19:53.218Z,36.51
2022-12-11T20:22:20.457Z,37.09
2022-12-11T20:24:56.314Z,36.61
2022-12-11T20:29:23.983Z,37.91
2022-12-11T20:30:46.754Z,38.72
2022-12-11T20:33:19.155Z,37.98
2022-12-11T20:35:46.433Z,37.69
2022-12-11T20:38:13.755Z,38.69
2022-12-11T20:41:05.978Z,38.87
2022-12-11T20:43:34.634Z,37.81
2022-12-11T20:46:11.265Z,38.24
2022-12-11T20:48:38.683Z,39.99
2022-12-11T20:51:18.610Z,39.17
2022-12-11T20:53:49.934Z,38.86
2022-12-11T20:56:20.015Z,40.59
2022-12-11T20:59:07.273Z,39.68
2022-12-11T21:01:34.534Z,39.40
2022-12-11T21:04:13.874Z,39.80
2022-12-11T21:06:43.793Z,40.17
2022-12-11T21:09:12.534Z,40.56
2022-12-11T21:11:41.476Z,42.79
2022-12-11T21:14:13.153Z,42.81
2022-12-11T21:16:52.965Z,40.57
2022-12-11T21:19:38.293Z,40.69
2022-12-11T21:22:24.875Z,39.66
2022-12-11T21:24:57.194Z,41.22
2022-12-11T21:27:24.434Z,41.24
2022-12-11T21:29:54.954Z,40.85
2022-12-11T21:32:22.117Z,41.67
2022-12-11T21:34:50.325Z,40.64
2022-12-11T21:37:17.514Z,40.54
2022-12-11T21:39:44.714Z,41.20
2022-12-11T21:42:11.877Z,40.90
